createdAt,value
2019-05-12T00:01:28.576Z,11.35
2019-05-12T00:03:58.049Z,11.25
2019-05-12T00:06:28.461Z,11.14
2019-05-12T00:08:57.975Z,11.17
2019-05-12T00:11:28.633Z,11.09
2019-05-12T00:13:58.631Z,10.85
2019-05-12T00:16:28.311Z,10.94
2019-05-12T00:18:58.624Z,10.98
2019-05-12T00:21:28.321Z,10.95
2019-05-12T00:24:12.345Z,11.07
2019-05-12T00:26:41.745Z,11.08
2019-05-12T00:29:10.375Z,11.07
2019-05-12T00:31:38.947Z,10.78
2019-05-12T00:34:07.840Z,10.92
2019-05-12T00:36:37.990Z,10.71
2019-05-12T00:39:08.613Z,10.92
2019-05-12T00:41:39.022Z,10.93
2019-05-12T00:44:08.894Z,11.00
2019-05-12T00:46:38.507Z,10.85
2019-05-12T00:49:07.960Z,10.84
2019-05-12T00:51:38.433Z,10.82
2019-05-12T00:54:09.105Z,10.73
2019-05-12T00:56:39.132Z,10.76
2019-05-12T00:59:08.290Z,10.38
2019-05-12T01:01:38.052Z,10.24
2019-05-12T01:04:08.774Z,10.35
2019-05-12T01:06:38.754Z,10.38
2019-05-12T01:09:08.875Z,10.26
2019-05-12T01:11:37.973Z,10.23
2019-05-12T01:14:08.623Z,10.37
2019-05-12T01:16:38.502Z,10.24
2019-05-12T01:19:08.005Z,10.16
2019-05-12T01:21:37.658Z,10.33
2019-05-12T01:24:08.718Z,10.32
2019-05-12T01:26:38.753Z,10.46
2019-05-12T01:29:08.409Z,10.19
2019-05-12T01:31:42.852Z,10.38
2019-05-12T01:34:11.348Z,10.25
2019-05-12T01:36:39.897Z,10.13
2019-05-12T01:39:08.552Z,10.09
2019-05-12T01:41:39.025Z,10.26
2019-05-12T01:44:08.811Z,10.35
2019-05-12T01:46:38.330Z,10.03
2019-05-12T01:49:08.266Z,10.03
2019-05-12T01:51:38.527Z,10.22
2019-05-12T01:54:14.408Z,10.09
2019-05-12T01:56:38.278Z,10.19
2019-05-12T01:59:08.168Z,10.06
2019-05-12T02:01:38.976Z,10.12
2019-05-12T02:04:07.793Z,10.14
2019-05-12T02:06:38.507Z,10.10
2019-05-12T02:09:09.339Z,10.04
2019-05-12T02:11:38.204Z,10.07
2019-05-12T02:14:09.301Z,9.93
2019-05-12T02:16:38.658Z,9.91
2019-05-12T02:19:08.965Z,9.72
2019-05-12T02:21:38.301Z,9.55
2019-05-12T02:24:07.769Z,9.49
2019-05-12T02:26:38.324Z,9.10
2019-05-12T02:29:07.929Z,9.22
2019-05-12T02:31:39.675Z,8.76
2019-05-12T02:34:07.237Z,9.04
2019-05-12T02:36:35.804Z,8.69
2019-05-12T02:39:06.708Z,8.84
2019-05-12T02:41:35.237Z,9.09
2019-05-12T02:44:05.260Z,8.75
2019-05-12T02:46:34.909Z,9.03
2019-05-12T02:49:04.853Z,9.10
2019-05-12T02:51:35.167Z,9.31
2019-05-12T02:54:05.503Z,9.39
2019-05-12T02:56:35.478Z,9.40
2019-05-12T02:59:05.348Z,9.45
2019-05-12T03:01:34.808Z,9.47
2019-05-12T03:04:05.682Z,9.44
2019-05-12T03:06:36.061Z,9.15
2019-05-12T03:09:07.217Z,9.27
2019-05-12T03:11:36.325Z,9.33
2019-05-12T03:14:05.027Z,9.31
2019-05-12T03:16:34.897Z,9.29
2019-05-12T03:19:04.936Z,9.19
2019-05-12T03:21:35.285Z,7.82
2019-05-12T03:24:06.040Z,7.69
2019-05-12T03:26:34.879Z,7.55
2019-05-12T03:29:05.793Z,7.39
2019-05-12T03:31:40.114Z,7.54
2019-05-12T03:34:09.297Z,7.71
2019-05-12T03:36:41.244Z,8.30
2019-05-12T03:39:07.173Z,7.89
2019-05-12T03:41:35.700Z,7.73
2019-05-12T03:44:05.123Z,8.24
2019-05-12T03:46:35.254Z,8.52
2019-05-12T03:49:05.225Z,8.75
2019-05-12T03:51:34.925Z,8.90
2019-05-12T03:54:04.771Z,8.99
2019-05-12T03:56:34.688Z,9.04
2019-05-12T03:59:04.828Z,9.09
2019-05-12T04:01:36.249Z,9.06
2019-05-12T04:04:05.109Z,9.04
2019-05-12T04:06:34.791Z,8.99
2019-05-12T04:09:06.423Z,9.04
2019-05-12T04:11:35.804Z,9.09
2019-05-12T04:14:05.597Z,9.05
2019-05-12T04:16:36.343Z,9.14
2019-05-12T04:19:05.530Z,9.25
2019-05-12T04:21:35.326Z,9.30
2019-05-12T04:24:05.407Z,9.34
2019-05-12T04:26:36.403Z,9.47
2019-05-12T04:29:05.355Z,9.56
2019-05-12T04:31:34.921Z,9.74
2019-05-12T04:34:05.126Z,9.56
2019-05-12T04:36:35.572Z,9.48
2019-05-12T04:39:06.068Z,9.36
2019-05-12T04:41:35.442Z,9.38
2019-05-12T04:44:05.861Z,9.57
2019-05-12T04:46:35.174Z,9.79
2019-05-12T04:49:05.215Z,9.75
2019-05-12T04:51:34.876Z,9.97
2019-05-12T04:54:05.698Z,10.11
2019-05-12T04:56:35.859Z,10.10
2019-05-12T04:59:05.200Z,10.38
2019-05-12T05:01:34.889Z,10.57
2019-05-12T05:04:05.360Z,10.93
2019-05-12T05:06:34.327Z,11.07
2019-05-12T05:09:05.096Z,10.90
2019-05-12T05:11:34.504Z,11.35
2019-05-12T05:14:04.221Z,11.41
2019-05-12T05:16:34.698Z,11.47
2019-05-12T05:19:03.825Z,11.32
2019-05-12T05:21:34.372Z,11.69
2019-05-12T05:24:03.769Z,11.85
2019-05-12T05:26:36.589Z,12.05
2019-05-12T05:29:04.324Z,12.42
2019-05-12T05:31:33.878Z,12.40
2019-05-12T05:34:04.835Z,12.81
2019-05-12T05:36:34.608Z,12.99
2019-05-12T05:39:04.622Z,13.25
2019-05-12T05:41:34.565Z,12.86
2019-05-12T05:44:03.330Z,13.18
2019-05-12T05:46:33.662Z,13.70
2019-05-12T05:49:04.220Z,14.23
2019-05-12T05:51:33.489Z,14.75
2019-05-12T05:54:04.004Z,14.43
2019-05-12T05:56:42.180Z,14.56
2019-05-12T05:59:04.481Z,14.48
2019-05-12T06:01:34.787Z,12.94
2019-05-12T06:04:08.358Z,12.54
2019-05-12T06:06:34.278Z,10.36
2019-05-12T06:09:05.315Z,10.94
2019-05-12T06:11:34.502Z,12.35
2019-05-12T06:14:11.444Z,14.17
2019-05-12T06:16:34.167Z,14.90
2019-05-12T06:19:03.441Z,14.45
2019-05-12T06:21:36.394Z,15.20
2019-05-12T06:24:03.546Z,16.97
2019-05-12T06:26:35.384Z,17.66
2019-05-12T06:29:04.244Z,17.84
2019-05-12T06:31:33.447Z,14.69
2019-05-12T06:34:05.944Z,13.85
2019-05-12T06:36:34.040Z,16.45
2019-05-12T06:39:04.387Z,17.58
2019-05-12T06:41:33.844Z,20.23
2019-05-12T06:44:03.697Z,21.97
2019-05-12T06:46:34.221Z,20.03
2019-05-12T06:49:10.221Z,23.84
2019-05-12T06:51:33.803Z,26.66
2019-05-12T06:54:07.329Z,28.66
2019-05-12T06:56:34.209Z,28.39
2019-05-12T06:59:09.760Z,29.58
2019-05-12T07:01:33.592Z,28.28
2019-05-12T07:04:06.452Z,27.76
2019-05-12T07:06:33.901Z,29.09
2019-05-12T07:09:09.197Z,29.09
2019-05-12T07:11:44.559Z,28.80
2019-05-12T07:14:07.980Z,27.00
2019-05-12T07:16:34.194Z,24.32
2019-05-12T07:19:07.613Z,21.95
2019-05-12T07:21:33.623Z,19.87
2019-05-12T07:24:06.610Z,20.03
2019-05-12T07:26:33.929Z,20.85
2019-05-12T07:29:04.414Z,21.05
2019-05-12T07:31:33.739Z,20.58
2019-05-12T07:34:06.274Z,20.80
2019-05-12T07:36:33.338Z,21.92
2019-05-12T07:39:04.290Z,22.46
2019-05-12T07:41:34.192Z,22.64
2019-05-12T07:44:03.662Z,22.13
2019-05-12T07:46:34.220Z,21.33
2019-05-12T07:49:03.874Z,21.48
2019-05-12T07:51:38.408Z,21.95
2019-05-12T07:54:04.122Z,22.72
2019-05-12T07:56:35.687Z,23.74
2019-05-12T07:59:04.397Z,24.32
2019-05-12T08:01:35.912Z,25.03
2019-05-12T08:04:04.505Z,25.52
2019-05-12T08:06:41.443Z,26.27
2019-05-12T08:09:05.709Z,26.28
2019-05-12T08:11:38.594Z,27.39
2019-05-12T08:14:04.528Z,27.71
2019-05-12T08:16:36.808Z,27.47
2019-05-12T08:19:03.974Z,25.63
2019-05-12T08:21:37.030Z,23.37
2019-05-12T08:24:03.797Z,23.40
2019-05-12T08:26:33.479Z,24.59
2019-05-12T08:29:04.217Z,25.91
2019-05-12T08:31:40.111Z,27.11
2019-05-12T08:34:04.245Z,25.81
2019-05-12T08:36:33.489Z,25.62
2019-05-12T08:39:05.588Z,24.20
2019-05-12T08:41:34.135Z,22.77
2019-05-12T08:44:04.587Z,21.84
2019-05-12T08:46:34.365Z,21.36
2019-05-12T08:49:05.363Z,20.60
2019-05-12T08:51:34.002Z,21.67
2019-05-12T08:54:07.491Z,21.97
2019-05-12T08:56:33.240Z,24.48
2019-05-12T08:59:04.132Z,25.86
2019-05-12T09:01:34.346Z,26.08
2019-05-12T09:04:06.689Z,27.73
2019-05-12T09:06:34.272Z,28.37
2019-05-12T09:09:04.700Z,29.46
2019-05-12T09:11:33.669Z,27.59
2019-05-12T09:14:03.612Z,24.80
2019-05-12T09:16:33.531Z,25.60
2019-05-12T09:19:04.686Z,27.30
2019-05-12T09:21:34.920Z,28.34
2019-05-12T09:24:04.274Z,28.14
2019-05-12T09:26:34.347Z,28.10
2019-05-12T09:29:03.560Z,27.24
2019-05-12T09:31:33.581Z,26.83
2019-05-12T09:34:11.355Z,25.34
2019-05-12T09:36:34.013Z,24.67
2019-05-12T09:39:03.817Z,23.96
2019-05-12T09:41:35.938Z,23.11
2019-05-12T09:44:04.577Z,21.07
2019-05-12T09:46:37.284Z,20.62
2019-05-12T09:49:04.210Z,20.77
2019-05-12T09:51:41.016Z,20.38
2019-05-12T09:54:05.095Z,20.40
2019-05-12T09:56:34.206Z,20.02
2019-05-12T09:59:17.248Z,21.25
2019-05-12T10:01:37.299Z,21.32
2019-05-12T10:04:03.635Z,20.96
2019-05-12T10:06:33.942Z,21.08
2019-05-12T10:09:03.462Z,21.66
2019-05-12T10:11:32.220Z,21.67
2019-05-12T10:14:06.510Z,22.02
2019-05-12T10:16:33.354Z,23.13
2019-05-12T10:19:03.774Z,24.68
2019-05-12T10:21:31.871Z,25.10
2019-05-12T10:24:02.808Z,24.39
2019-05-12T10:26:30.837Z,22.99
2019-05-12T10:29:13.326Z,24.36
2019-05-12T10:31:35.613Z,26.99
2019-05-12T10:34:29.205Z,26.62
2019-05-12T10:36:56.474Z,27.11
2019-05-12T10:39:24.983Z,23.99
2019-05-12T10:41:54.533Z,24.14
2019-05-12T10:44:23.365Z,22.90
2019-05-12T10:46:55.021Z,21.69
2019-05-12T10:49:23.558Z,21.46
2019-05-12T10:51:53.951Z,20.64
2019-05-12T10:54:24.224Z,20.33
2019-05-12T10:56:54.654Z,20.61
2019-05-12T10:59:32.293Z,20.70
2019-05-12T11:01:54.102Z,21.54
2019-05-12T11:04:35.254Z,21.95
2019-05-12T11:06:53.819Z,21.52
2019-05-12T11:09:27.404Z,21.51
2019-05-12T11:11:54.011Z,22.30
2019-05-12T11:14:26.469Z,22.72
2019-05-12T11:16:54.401Z,23.41
2019-05-12T11:19:22.909Z,23.35
2019-05-12T11:21:53.601Z,22.73
2019-05-12T11:24:21.729Z,22.34
2019-05-12T11:26:50.226Z,21.28
2019-05-12T11:29:18.764Z,21.49
2019-05-12T11:31:47.298Z,22.11
2019-05-12T11:34:15.779Z,22.65
2019-05-12T11:36:44.349Z,22.73
2019-05-12T11:39:14.230Z,21.26
2019-05-12T11:41:44.292Z,22.12
2019-05-12T11:44:13.307Z,22.32
2019-05-12T11:46:44.109Z,22.35
2019-05-12T11:49:13.807Z,21.72
2019-05-12T11:51:42.442Z,22.34
2019-05-12T11:54:13.452Z,22.00
2019-05-12T11:56:48.760Z,22.62
2019-05-12T11:59:13.687Z,23.29
2019-05-12T12:01:47.438Z,22.94
2019-05-12T12:04:14.214Z,22.23
2019-05-12T12:06:43.838Z,22.24
2019-05-12T12:09:15.470Z,22.33
2019-05-12T12:11:43.393Z,23.26
2019-05-12T12:14:13.850Z,23.05
2019-05-12T12:16:50.104Z,23.61
2019-05-12T12:19:12.787Z,23.46
2019-05-12T12:21:48.088Z,24.00
2019-05-12T12:24:13.204Z,24.52
2019-05-12T12:26:44.269Z,24.75
2019-05-12T12:29:13.635Z,24.04
2019-05-12T12:31:49.954Z,23.07
2019-05-12T12:34:23.836Z,23.18
2019-05-12T12:36:48.952Z,24.20
2019-05-12T12:39:17.457Z,24.40
2019-05-12T12:41:58.573Z,24.10
2019-05-12T12:44:16.262Z,23.42
2019-05-12T12:46:44.836Z,23.43
2019-05-12T12:49:14.051Z,24.11
2019-05-12T12:51:43.514Z,24.27
2019-05-12T12:54:12.177Z,23.28
2019-05-12T12:56:40.694Z,23.74
2019-05-12T12:59:10.525Z,23.66
2019-05-12T13:01:39.440Z,23.85
2019-05-12T13:04:07.938Z,23.35
2019-05-12T13:06:36.440Z,22.17
2019-05-12T13:09:16.690Z,22.00
2019-05-12T13:11:37.671Z,22.05
2019-05-12T13:14:06.169Z,21.86
2019-05-12T13:16:34.690Z,22.45
2019-05-12T13:19:11.957Z,23.25
2019-05-12T13:21:33.708Z,23.76
2019-05-12T13:24:03.606Z,23.63
2019-05-12T13:26:32.281Z,23.64
2019-05-12T13:29:00.793Z,23.80
2019-05-12T13:31:29.314Z,24.54
2019-05-12T13:33:57.829Z,24.83
2019-05-12T13:36:29.391Z,24.69
2019-05-12T13:38:56.664Z,24.69
2019-05-12T13:41:25.190Z,24.29
2019-05-12T13:43:58.043Z,24.81
2019-05-12T13:46:24.055Z,24.29
2019-05-12T13:48:57.751Z,23.72
2019-05-12T13:51:24.143Z,23.49
2019-05-12T13:53:53.130Z,23.41
2019-05-12T13:56:27.379Z,23.08
2019-05-12T13:58:54.101Z,23.22
2019-05-12T14:01:24.671Z,24.18
2019-05-12T14:03:53.585Z,25.11
2019-05-12T14:06:31.524Z,24.83
2019-05-12T14:08:53.797Z,24.77
2019-05-12T14:11:23.858Z,24.89
2019-05-12T14:13:52.699Z,24.49
2019-05-12T14:16:23.671Z,23.94
2019-05-12T14:18:57.052Z,24.00
2019-05-12T14:21:24.290Z,23.86
2019-05-12T14:23:51.927Z,23.41
2019-05-12T14:26:20.439Z,23.44
2019-05-12T14:28:49.698Z,23.14
2019-05-12T14:31:29.392Z,22.59
2019-05-12T14:33:48.949Z,22.75
2019-05-12T14:36:22.124Z,23.06
2019-05-12T14:38:47.661Z,23.04
2019-05-12T14:41:16.162Z,22.78
2019-05-12T14:43:47.667Z,22.27
2019-05-12T14:46:15.151Z,21.95
2019-05-12T14:48:46.411Z,22.12
2019-05-12T14:51:14.218Z,22.12
2019-05-12T14:53:46.105Z,22.79
2019-05-12T14:56:14.042Z,22.64
2019-05-12T14:58:44.249Z,23.04
2019-05-12T15:01:14.301Z,22.68
2019-05-12T15:03:47.728Z,22.62
2019-05-12T15:06:14.119Z,22.73
2019-05-12T15:08:43.622Z,23.20
2019-05-12T15:11:13.212Z,23.21
2019-05-12T15:13:43.668Z,22.73
2019-05-12T15:16:12.363Z,22.71
2019-05-12T15:18:46.575Z,22.12
2019-05-12T15:21:11.175Z,21.68
2019-05-12T15:23:39.728Z,21.47
2019-05-12T15:26:09.618Z,21.45
2019-05-12T15:28:38.504Z,21.71
2019-05-12T15:31:07.172Z,22.04
2019-05-12T15:33:36.604Z,21.78
2019-05-12T15:36:05.128Z,22.13
2019-05-12T15:38:34.274Z,22.46
2019-05-12T15:41:04.186Z,22.88
2019-05-12T15:43:37.828Z,22.66
2019-05-12T15:46:03.205Z,22.96
2019-05-12T15:48:34.018Z,22.00
2019-05-12T15:51:05.444Z,21.20
2019-05-12T15:53:33.460Z,20.91
2019-05-12T15:56:05.767Z,20.24
2019-05-12T15:58:33.542Z,19.85
2019-05-12T16:01:04.390Z,20.15
2019-05-12T16:03:34.326Z,20.73
2019-05-12T16:06:10.088Z,21.24
2019-05-12T16:08:33.122Z,21.66
2019-05-12T16:11:01.631Z,21.65
2019-05-12T16:13:30.142Z,22.47
2019-05-12T16:16:03.454Z,22.36
2019-05-12T16:18:28.879Z,21.85
2019-05-12T16:20:58.856Z,21.27
2019-05-12T16:23:30.006Z,21.01
2019-05-12T16:26:01.480Z,21.18
2019-05-12T16:28:28.178Z,21.34
2019-05-12T16:30:58.903Z,21.34
2019-05-12T16:33:26.983Z,21.14
2019-05-12T16:35:59.968Z,20.71
2019-05-12T16:38:26.109Z,20.35
2019-05-12T16:40:54.611Z,19.77
2019-05-12T16:43:23.832Z,19.63
2019-05-12T16:45:53.772Z,19.71
2019-05-12T16:48:30.220Z,19.67
2019-05-12T16:50:52.657Z,19.84
2019-05-12T16:53:23.523Z,19.95
2019-05-12T16:55:53.291Z,19.93
2019-05-12T16:58:26.110Z,19.93
2019-05-12T17:00:53.463Z,20.06
2019-05-12T17:03:23.689Z,20.12
2019-05-12T17:05:55.920Z,20.19
2019-05-12T17:08:24.036Z,20.24
2019-05-12T17:11:00.875Z,20.05
2019-05-12T17:13:23.624Z,19.50
2019-05-12T17:15:55.227Z,19.36
2019-05-12T17:18:24.551Z,19.27
2019-05-12T17:20:54.537Z,18.92
2019-05-12T17:23:24.655Z,18.71
2019-05-12T17:25:53.715Z,18.80
2019-05-12T17:28:23.922Z,18.64
2019-05-12T17:30:54.350Z,18.51
2019-05-12T17:33:27.207Z,18.33
2019-05-12T17:35:53.476Z,18.44
2019-05-12T17:38:25.067Z,18.51
2019-05-12T17:40:58.897Z,18.50
2019-05-12T17:43:23.262Z,18.11
2019-05-12T17:45:59.171Z,18.01
2019-05-12T17:48:23.442Z,17.94
2019-05-12T17:50:53.922Z,18.08
2019-05-12T17:53:24.032Z,18.32
2019-05-12T17:55:54.043Z,18.19
2019-05-12T17:58:24.215Z,17.95
2019-05-12T18:00:52.963Z,17.94
2019-05-12T18:03:25.133Z,17.61
2019-05-12T18:05:53.418Z,17.76
2019-05-12T18:08:24.005Z,17.61
2019-05-12T18:10:54.486Z,17.37
2019-05-12T18:13:23.457Z,17.48
2019-05-12T18:15:52.845Z,17.55
2019-05-12T18:18:24.124Z,17.36
2019-05-12T18:20:51.628Z,17.42
2019-05-12T18:23:28.447Z,17.39
2019-05-12T18:25:50.379Z,17.24
2019-05-12T18:28:21.555Z,17.01
2019-05-12T18:30:49.150Z,17.08
2019-05-12T18:33:29.436Z,16.97
2019-05-12T18:35:47.913Z,17.05
2019-05-12T18:38:21.090Z,17.11
2019-05-12T18:40:46.689Z,17.07
2019-05-12T18:43:15.216Z,17.03
2019-05-12T18:45:48.983Z,16.97
2019-05-12T18:48:17.843Z,16.82
2019-05-12T18:50:44.328Z,16.71
2019-05-12T18:53:16.657Z,16.72
2019-05-12T18:55:44.283Z,16.49
2019-05-12T18:58:14.824Z,16.44
2019-05-12T19:00:43.631Z,16.40
2019-05-12T19:03:14.070Z,16.33
2019-05-12T19:05:43.752Z,16.29
2019-05-12T19:08:13.996Z,16.20
2019-05-12T19:10:45.981Z,16.21
2019-05-12T19:13:13.223Z,16.08
2019-05-12T19:15:44.033Z,15.93
2019-05-12T19:18:17.892Z,15.89
2019-05-12T19:20:43.351Z,15.79
2019-05-12T19:23:13.976Z,15.60
2019-05-12T19:25:43.662Z,15.43
2019-05-12T19:28:13.499Z,15.41
2019-05-12T19:30:43.727Z,15.35
2019-05-12T19:33:13.609Z,15.32
2019-05-12T19:35:43.011Z,15.27
2019-05-12T19:38:15.057Z,15.16
2019-05-12T19:40:47.351Z,15.08
2019-05-12T19:43:14.150Z,15.05
2019-05-12T19:45:43.546Z,15.03
2019-05-12T19:48:23.917Z,14.93
2019-05-12T19:50:44.434Z,14.85
2019-05-12T19:53:13.479Z,14.67
2019-05-12T19:55:44.076Z,14.64
2019-05-12T19:58:12.740Z,14.53
2019-05-12T20:00:43.665Z,14.50
2019-05-12T20:03:13.940Z,14.36
2019-05-12T20:05:43.343Z,14.35
2019-05-12T20:08:13.685Z,14.23
2019-05-12T20:10:44.867Z,14.29
2019-05-12T20:13:13.656Z,14.13
2019-05-12T20:15:43.701Z,14.13
2019-05-12T20:18:14.637Z,13.95
2019-05-12T20:20:44.744Z,13.70
2019-05-12T20:23:14.308Z,13.66
2019-05-12T20:25:44.203Z,13.58
2019-05-12T20:28:14.464Z,13.52
2019-05-12T20:30:43.991Z,13.43
2019-05-12T20:33:13.682Z,13.45
2019-05-12T20:35:45.084Z,13.37
2019-05-12T20:38:14.848Z,13.18
2019-05-12T20:40:43.530Z,13.19
2019-05-12T20:43:14.743Z,13.16
2019-05-12T20:45:45.543Z,13.07
2019-05-12T20:48:14.437Z,13.17
2019-05-12T20:50:43.647Z,13.11
2019-05-12T20:53:14.351Z,13.16
2019-05-12T20:55:44.251Z,13.15
2019-05-12T20:58:13.683Z,13.17
2019-05-12T21:00:45.429Z,13.11
2019-05-12T21:03:13.808Z,13.15
2019-05-12T21:05:42.940Z,12.95
2019-05-12T21:08:12.919Z,12.98
2019-05-12T21:10:43.771Z,13.03
2019-05-12T21:13:14.698Z,12.91
2019-05-12T21:15:45.661Z,12.87
2019-05-12T21:18:14.652Z,12.76
2019-05-12T21:20:46.550Z,12.80
2019-05-12T21:23:14.148Z,12.79
2019-05-12T21:25:43.838Z,12.84
2019-05-12T21:28:14.809Z,12.73
2019-05-12T21:30:48.014Z,12.81
2019-05-12T21:33:14.681Z,12.84
2019-05-12T21:35:46.053Z,12.86
2019-05-12T21:38:13.618Z,12.91
2019-05-12T21:40:44.050Z,12.85
2019-05-12T21:43:13.525Z,12.89
2019-05-12T21:45:42.125Z,12.80
2019-05-12T21:48:17.442Z,12.75
2019-05-12T21:50:40.916Z,12.83
2019-05-12T21:53:10.259Z,12.75
2019-05-12T21:55:39.761Z,12.67
2019-05-12T21:58:12.044Z,12.66
2019-05-12T22:00:42.849Z,12.74
2019-05-12T22:03:15.489Z,12.72
2019-05-12T22:05:51.354Z,12.72
2019-05-12T22:08:20.785Z,12.73
2019-05-12T22:10:45.009Z,12.75
2019-05-12T22:13:17.090Z,12.76
2019-05-12T22:15:43.737Z,12.75
2019-05-12T22:18:12.234Z,12.72
2019-05-12T22:20:40.797Z,12.76
2019-05-12T22:23:11.922Z,12.66
2019-05-12T22:25:39.631Z,12.63
2019-05-12T22:28:10.304Z,12.56
2019-05-12T22:30:38.357Z,12.51
2019-05-12T22:33:10.717Z,12.60
2019-05-12T22:35:37.149Z,12.66
2019-05-12T22:38:15.154Z,12.60
2019-05-12T22:40:35.894Z,12.59
2019-05-12T22:43:07.047Z,12.67
2019-05-12T22:45:43.540Z,12.73
2019-05-12T22:48:04.873Z,12.70
2019-05-12T22:50:35.196Z,12.61
2019-05-12T22:53:04.592Z,12.47
2019-05-12T22:55:36.171Z,12.19
2019-05-12T22:58:03.647Z,11.89
2019-05-12T23:00:34.214Z,11.77
2019-05-12T23:03:09.310Z,11.64
2019-05-12T23:05:32.655Z,11.75
2019-05-12T23:08:06.046Z,11.85
2019-05-12T23:10:31.486Z,11.85
2019-05-12T23:13:02.049Z,11.94
2019-05-12T23:15:30.229Z,12.08
2019-05-12T23:17:58.752Z,12.09
2019-05-12T23:20:31.057Z,12.22
2019-05-12T23:22:57.833Z,12.31
2019-05-12T23:25:26.341Z,12.37
2019-05-12T23:27:54.868Z,12.25
2019-05-12T23:30:24.379Z,12.03
2019-05-12T23:32:53.107Z,11.95
2019-05-12T23:35:21.603Z,11.93
2019-05-12T23:37:50.100Z,12.01
2019-05-12T23:40:18.610Z,12.00
2019-05-12T23:42:47.106Z,12.07
2019-05-12T23:45:15.705Z,12.12
2019-05-12T23:47:44.513Z,11.97
2019-05-12T23:50:14.286Z,12.05
2019-05-12T23:52:44.074Z,12.09
2019-05-12T23:55:13.820Z,12.06
2019-05-12T23:57:44.499Z,11.94
